Time;durP1;ratioP1;P1;durP2;ratioP2;P2;SDS_P1;SDS_P2;PMS_P1;PMS_P2;Temp;Humidity;BMP_temperature;BMP_pressure;BME280_temperature;BME280_humidity;BME280_pressure;Samples;Min_cycle;Max_cycle;Signal;HPM_P1;HPM_P2
2023/01/27 00:00:11;;;;;;;;;;;2.00;92.40;;;;;;5003773;28;20637;-78
2023/01/27 00:02:37;;;;;;;;;;;2.00;92.40;;;;;;4992481;28;20027;-78
2023/01/27 00:05:04;;;;;;;;;;;2.00;92.40;;;;;;5005229;28;19956;-78
2023/01/27 00:07:31;;;;;;;;;;;2.00;92.40;;;;;;5006773;28;20203;-76
2023/01/27 00:09:57;;;;;;;;;;;2.00;92.40;;;;;;5001139;28;19929;-77
2023/01/27 00:15:12;;;;;;;;;;;2.00;92.50;;;;;;5010660;28;19933;-78
2023/01/27 00:17:38;;;;;;;;;;;2.00;92.50;;;;;;5007437;28;19964;-78
2023/01/27 00:20:05;;;;;;;;;;;2.00;92.50;;;;;;5012953;28;19983;-77
2023/01/27 00:25:16;;;;;;;;;;;2.00;92.60;;;;;;5011314;28;19945;-77
2023/01/27 00:27:43;;;;;;;;;;;2.00;92.60;;;;;;5006425;28;19999;-78
2023/01/27 00:30:12;;;;;;;;;;;1.90;92.60;;;;;;5005594;28;19933;-78
2023/01/27 00:35:24;;;;;;;;;;;1.90;92.60;;;;;;5005231;28;19954;-78
2023/01/27 00:37:51;;;;;;;;;;;1.90;92.60;;;;;;5006524;28;20050;-75
2023/01/27 00:40:17;;;;;;;;;;;1.90;92.60;;;;;;5007197;28;20770;-78
2023/01/27 00:42:44;;;;;;;;;;;1.90;92.60;;;;;;5008064;28;20097;-77
2023/01/27 00:47:56;;;;;;;;;;;1.90;92.70;;;;;;5005718;28;19939;-76
2023/01/27 00:50:23;;;;;;;;;;;1.90;92.70;;;;;;5004007;28;19940;-78
2023/01/27 00:52:49;;;;;;;;;;;1.90;92.70;;;;;;5012461;28;20394;-77
2023/01/27 00:55:17;;;;;;;;;;;1.90;92.70;;;;;;5009444;28;19940;-77
2023/01/27 00:57:43;;;;;;;;;;;1.90;92.80;;;;;;5010489;28;20044;-77
2023/01/27 01:00:12;;;;;;;;;;;1.90;92.80;;;;;;5004880;28;19933;-77
2023/01/27 01:02:39;;;;;;;;;;;1.90;92.80;;;;;;5010665;28;19937;-77
2023/01/27 01:05:06;;;;;;;;;;;1.90;92.80;;;;;;5008025;28;19933;-77
2023/01/27 01:07:32;;;;;;;;;;;1.90;92.80;;;;;;5006034;28;20064;-77
2023/01/27 01:09:59;;;;;;;;;;;1.90;92.80;;;;;;5005602;28;19937;-77
2023/01/27 01:12:25;;;;;;;;;;;1.90;92.90;;;;;;5004913;28;20040;-78
2023/01/27 01:14:52;;;;;;;;;;;1.90;92.90;;;;;;5006591;28;19937;-78
2023/01/27 01:17:20;;;;;;;;;;;1.90;92.90;;;;;;5004880;28;19929;-77
2023/01/27 01:19:46;;;;;;;;;;;1.90;92.90;;;;;;5003029;28;20577;-77
2023/01/27 01:22:13;;;;;;;;;;;1.90;92.90;;;;;;5001125;28;19975;-77
2023/01/27 01:24:39;;;;;;;;;;;1.90;92.90;;;;;;5004480;28;20003;-77
2023/01/27 01:27:06;;;;;;;;;;;1.90;92.90;;;;;;5009286;28;20531;-78
2023/01/27 01:29:32;;;;;;;;;;;1.90;93.00;;;;;;5005888;28;19936;-78
2023/01/27 01:31:59;;;;;;;;;;;1.90;93.00;;;;;;5006960;28;19983;-78
2023/01/27 01:34:27;;;;;;;;;;;1.90;93.00;;;;;;5010509;28;19929;-77
2023/01/27 01:36:53;;;;;;;;;;;1.90;93.00;;;;;;5007474;28;19933;-78
2023/01/27 01:39:20;;;;;;;;;;;1.90;93.00;;;;;;5010377;28;19933;-75
2023/01/27 01:41:46;;;;;;;;;;;1.90;93.00;;;;;;5008843;28;19933;-78
2023/01/27 01:44:21;;;;;;;;;;;1.90;93.00;;;;;;5014346;28;19933;-77
2023/01/27 01:46:47;;;;;;;;;;;1.90;93.00;;;;;;5012628;28;20475;-78
2023/01/27 01:49:14;;;;;;;;;;;1.80;93.00;;;;;;5001477;28;19933;-78
2023/01/27 01:51:44;;;;;;;;;;;1.90;93.10;;;;;;5003161;28;19933;-78
2023/01/27 01:54:12;;;;;;;;;;;1.90;93.10;;;;;;5011265;28;19933;-77
2023/01/27 01:56:42;;;;;;;;;;;1.80;93.10;;;;;;5003063;28;20407;-77
2023/01/27 01:59:09;;;;;;;;;;;1.80;93.10;;;;;;5005360;28;19949;-77
2023/01/27 02:01:36;;;;;;;;;;;1.80;93.10;;;;;;5005969;28;19929;-77
2023/01/27 02:04:05;;;;;;;;;;;1.80;93.10;;;;;;5001790;28;19933;-76
2023/01/27 02:06:36;;;;;;;;;;;1.80;93.10;;;;;;5004898;28;19929;-78
2023/01/27 02:09:04;;;;;;;;;;;1.80;93.10;;;;;;5012806;28;19929;-77
2023/01/27 02:11:30;;;;;;;;;;;1.80;93.10;;;;;;5003243;28;19936;-77
2023/01/27 02:14:00;;;;;;;;;;;1.80;93.20;;;;;;5005103;28;20624;-77
2023/01/27 02:16:27;;;;;;;;;;;1.80;93.20;;;;;;5002383;28;19929;-78
2023/01/27 02:18:53;;;;;;;;;;;1.80;93.20;;;;;;5008590;28;19933;-77
2023/01/27 02:21:20;;;;;;;;;;;1.80;93.20;;;;;;5003081;28;19984;-77
2023/01/27 02:23:49;;;;;;;;;;;1.80;93.20;;;;;;5004871;28;19933;-78
2023/01/27 02:26:19;;;;;;;;;;;1.80;93.20;;;;;;5001862;28;20319;-78
2023/01/27 02:28:45;;;;;;;;;;;1.80;93.30;;;;;;5003839;28;19933;-78
2023/01/27 02:31:12;;;;;;;;;;;1.80;93.20;;;;;;5003957;28;19940;-77
2023/01/27 02:33:38;;;;;;;;;;;1.80;93.30;;;;;;5003995;28;19955;-77
2023/01/27 02:36:07;;;;;;;;;;;1.80;93.30;;;;;;5006754;28;20418;-77
2023/01/27 02:38:34;;;;;;;;;;;1.80;93.30;;;;;;5001371;28;19933;-78
2023/01/27 02:41:03;;;;;;;;;;;1.80;93.30;;;;;;5005329;28;20404;-77
2023/01/27 02:43:31;;;;;;;;;;;1.80;93.30;;;;;;5003840;28;19972;-77
2023/01/27 02:45:58;;;;;;;;;;;1.80;93.30;;;;;;5017294;28;20449;-77
2023/01/27 02:48:24;;;;;;;;;;;1.70;93.30;;;;;;5006493;28;19936;-77
2023/01/27 02:50:51;;;;;;;;;;;1.80;93.40;;;;;;5003113;28;19933;-78
2023/01/27 02:53:17;;;;;;;;;;;1.80;93.40;;;;;;5005858;28;20292;-77
2023/01/27 02:55:44;;;;;;;;;;;1.80;93.40;;;;;;5001809;28;19936;-77
2023/01/27 02:58:10;;;;;;;;;;;1.80;93.40;;;;;;5002502;28;19934;-77
2023/01/27 03:00:38;;;;;;;;;;;1.80;93.40;;;;;;4999420;28;19930;-77
2023/01/27 03:03:05;;;;;;;;;;;1.80;93.40;;;;;;5003447;28;19936;-77
2023/01/27 03:05:31;;;;;;;;;;;1.80;93.40;;;;;;5002639;28;19929;-77
2023/01/27 03:07:58;;;;;;;;;;;1.80;93.40;;;;;;5000103;28;20387;-77
2023/01/27 03:10:24;;;;;;;;;;;1.70;93.40;;;;;;5001061;28;19987;-78
2023/01/27 03:12:51;;;;;;;;;;;1.70;93.40;;;;;;5001825;28;19933;-78
2023/01/27 03:18:11;;;;;;;;;;;1.80;93.50;;;;;;4999236;28;19948;-78
2023/01/27 03:20:37;;;;;;;;;;;1.70;93.50;;;;;;4999040;28;19972;-77
2023/01/27 03:23:04;;;;;;;;;;;1.80;93.50;;;;;;5001700;28;19941;-78
2023/01/27 03:25:30;;;;;;;;;;;1.80;93.50;;;;;;5001155;28;19936;-77
2023/01/27 03:27:57;;;;;;;;;;;1.80;93.50;;;;;;5002428;28;19934;-78
2023/01/27 03:30:23;;;;;;;;;;;1.70;93.50;;;;;;5000964;28;19929;-77
2023/01/27 03:32:50;;;;;;;;;;;1.70;93.50;;;;;;5001110;28;19937;-77
2023/01/27 03:35:18;;;;;;;;;;;1.80;93.60;;;;;;5002112;28;19938;-77
2023/01/27 03:48:42;;;;;;;;;;;1.70;93.60;;;;;;5000544;28;19932;-78
2023/01/27 03:51:10;;;;;;;;;;;1.70;93.60;;;;;;5005635;28;20035;-77
2023/01/27 03:53:37;;;;;;;;;;;1.70;93.70;;;;;;5004180;28;19933;-78
2023/01/27 03:56:04;;;;;;;;;;;1.70;93.70;;;;;;5000511;28;19934;-77
2023/01/27 03:58:32;;;;;;;;;;;1.70;93.70;;;;;;5000144;28;20493;-77
2023/01/27 04:00:59;;;;;;;;;;;1.70;93.70;;;;;;5002970;28;19940;-77
2023/01/27 04:08:58;;;;;;;;;;;1.70;93.80;;;;;;5006106;28;20299;-77
2023/01/27 04:14:09;;;;;;;;;;;1.70;93.80;;;;;;5005213;28;19932;-78
2023/01/27 04:16:36;;;;;;;;;;;1.70;93.80;;;;;;5004923;28;19929;-77
2023/01/27 04:19:03;;;;;;;;;;;1.70;93.80;;;;;;5002716;28;20033;-77
2023/01/27 04:21:31;;;;;;;;;;;1.70;93.80;;;;;;5002837;28;19936;-77
2023/01/27 04:23:58;;;;;;;;;;;1.70;93.80;;;;;;5000466;28;19934;-77
2023/01/27 04:26:25;;;;;;;;;;;1.70;93.80;;;;;;4999951;28;19937;-77
2023/01/27 04:28:51;;;;;;;;;;;1.70;93.90;;;;;;4999751;28;19951;-78
2023/01/27 04:31:18;;;;;;;;;;;1.70;93.90;;;;;;5000546;28;20387;-78
2023/01/27 04:33:44;;;;;;;;;;;1.70;93.90;;;;;;5004696;28;19940;-77
2023/01/27 04:36:12;;;;;;;;;;;1.70;93.90;;;;;;5002896;28;19929;-77
2023/01/27 04:38:40;;;;;;;;;;;1.70;93.90;;;;;;5004527;28;19933;-77
2023/01/27 04:41:07;;;;;;;;;;;1.70;93.90;;;;;;5004221;28;19935;-78
2023/01/27 04:43:33;;;;;;;;;;;1.70;93.90;;;;;;5010070;28;19940;-78
2023/01/27 04:46:00;;;;;;;;;;;1.70;93.90;;;;;;5008034;28;20409;-77
2023/01/27 04:48:26;;;;;;;;;;;1.70;94.00;;;;;;5002445;28;19941;-78
2023/01/27 04:50:53;;;;;;;;;;;1.70;94.00;;;;;;5010634;28;20003;-77
2023/01/27 04:53:19;;;;;;;;;;;1.70;94.00;;;;;;5008046;28;19937;-77
2023/01/27 04:55:48;;;;;;;;;;;1.70;94.00;;;;;;5003091;28;19929;-77
2023/01/27 04:58:16;;;;;;;;;;;1.70;94.00;;;;;;5009299;28;19936;-78
2023/01/27 05:00:43;;;;;;;;;;;1.70;94.00;;;;;;5004782;28;20280;-77
2023/01/27 05:03:10;;;;;;;;;;;1.60;94.00;;;;;;5006364;28;20371;-78
2023/01/27 05:05:37;;;;;;;;;;;1.60;94.00;;;;;;5003079;28;19933;-77
2023/01/27 05:08:03;;;;;;;;;;;1.60;94.00;;;;;;5004508;28;20440;-76
2023/01/27 05:10:30;;;;;;;;;;;1.60;94.00;;;;;;5000318;28;19937;-77
2023/01/27 05:12:58;;;;;;;;;;;1.60;94.00;;;;;;5003746;28;19940;-77
2023/01/27 05:15:25;;;;;;;;;;;1.60;94.00;;;;;;4999329;28;20060;-77
2023/01/27 05:17:51;;;;;;;;;;;1.60;94.10;;;;;;5009045;28;19952;-77
2023/01/27 05:20:18;;;;;;;;;;;1.70;94.10;;;;;;5004963;28;19983;-78
2023/01/27 05:22:45;;;;;;;;;;;1.60;94.10;;;;;;5002362;28;20450;-77
2023/01/27 05:25:11;;;;;;;;;;;1.70;94.10;;;;;;5005331;28;19933;-77
2023/01/27 05:27:38;;;;;;;;;;;1.60;94.10;;;;;;5005542;28;19929;-77
2023/01/27 05:30:07;;;;;;;;;;;1.60;94.10;;;;;;5005315;28;19930;-77
2023/01/27 05:32:33;;;;;;;;;;;1.60;94.10;;;;;;5000715;28;19956;-77
2023/01/27 05:35:00;;;;;;;;;;;1.60;94.20;;;;;;4999845;28;19933;-77
2023/01/27 05:37:26;;;;;;;;;;;1.60;94.20;;;;;;5005041;28;19975;-77
2023/01/27 05:39:54;;;;;;;;;;;1.60;94.20;;;;;;5002377;28;19929;-77
2023/01/27 05:42:20;;;;;;;;;;;1.60;94.20;;;;;;5008311;28;19940;-77
2023/01/27 05:44:47;;;;;;;;;;;1.60;94.20;;;;;;5004665;28;19948;-77
2023/01/27 05:47:15;;;;;;;;;;;1.60;94.20;;;;;;5002023;28;19939;-77
2023/01/27 05:49:41;;;;;;;;;;;1.60;94.30;;;;;;5002529;28;19958;-77
2023/01/27 05:52:08;;;;;;;;;;;1.60;94.30;;;;;;5007656;28;19929;-77
2023/01/27 05:54:34;;;;;;;;;;;1.60;94.30;;;;;;5011368;28;19940;-79
2023/01/27 05:57:01;;;;;;;;;;;1.60;94.30;;;;;;5006460;28;19936;-79
2023/01/27 05:59:27;;;;;;;;;;;1.50;94.60;;;;;;5010824;28;19936;-79
2023/01/27 06:01:54;;;;;;;;;;;1.50;95.10;;;;;;5007961;28;19936;-80
2023/01/27 06:04:22;;;;;;;;;;;1.50;95.30;;;;;;5012705;28;19983;-79
2023/01/27 06:06:48;;;;;;;;;;;1.50;95.50;;;;;;5012082;28;19936;-79
2023/01/27 06:09:15;;;;;;;;;;;1.50;95.50;;;;;;5010803;28;19929;-80
2023/01/27 06:11:41;;;;;;;;;;;1.50;95.40;;;;;;5012605;28;19933;-80
2023/01/27 06:14:08;;;;;;;;;;;1.50;95.40;;;;;;5010329;28;19934;-80
2023/01/27 06:16:34;;;;;;;;;;;1.50;95.30;;;;;;5007133;28;19976;-80
2023/01/27 06:19:01;;;;;;;;;;;1.50;95.30;;;;;;5005334;28;20023;-80
2023/01/27 06:21:29;;;;;;;;;;;1.50;95.20;;;;;;5010371;28;20342;-80
2023/01/27 06:23:56;;;;;;;;;;;1.60;95.20;;;;;;5010152;28;19936;-80
2023/01/27 06:26:23;;;;;;;;;;;1.60;95.10;;;;;;5006275;28;19935;-80
2023/01/27 06:28:49;;;;;;;;;;;1.60;95.10;;;;;;5011362;28;20300;-80
2023/01/27 06:31:18;;;;;;;;;;;1.50;95.00;;;;;;5007375;28;19972;-80
2023/01/27 06:33:44;;;;;;;;;;;1.50;95.00;;;;;;5003569;28;19933;-80
2023/01/27 06:36:12;;;;;;;;;;;1.60;95.00;;;;;;5007415;28;19999;-80
2023/01/27 06:38:40;;;;;;;;;;;1.60;95.00;;;;;;5005843;28;20652;-80
2023/01/27 06:41:06;;;;;;;;;;;1.60;95.00;;;;;;5010252;28;19943;-80
2023/01/27 06:43:33;;;;;;;;;;;1.60;95.30;;;;;;5009660;28;19933;-80
2023/01/27 06:46:00;;;;;;;;;;;1.60;95.00;;;;;;5011621;28;19929;-80
2023/01/27 06:48:27;;;;;;;;;;;1.50;94.90;;;;;;5007289;28;19934;-80
2023/01/27 06:50:53;;;;;;;;;;;1.60;95.00;;;;;;5006022;28;19929;-79
2023/01/27 06:53:20;;;;;;;;;;;1.60;95.00;;;;;;5012484;28;20625;-79
2023/01/27 06:55:49;;;;;;;;;;;1.60;95.00;;;;;;5003240;28;19936;-80
2023/01/27 06:58:15;;;;;;;;;;;1.60;95.00;;;;;;5009516;28;19929;-80
2023/01/27 07:00:42;;;;;;;;;;;1.60;95.00;;;;;;5010359;28;19940;-80
2023/01/27 07:03:10;;;;;;;;;;;1.60;95.00;;;;;;5007102;28;20430;-80
2023/01/27 07:05:37;;;;;;;;;;;1.50;94.90;;;;;;5008479;28;19949;-80
2023/01/27 07:08:04;;;;;;;;;;;1.50;94.90;;;;;;5005658;28;19933;-79
2023/01/27 07:10:31;;;;;;;;;;;1.60;94.90;;;;;;5003577;28;19933;-80
2023/01/27 07:13:05;;;;;;;;;;;1.60;94.90;;;;;;5005154;28;19930;-79
2023/01/27 07:15:32;;;;;;;;;;;1.50;94.90;;;;;;5008494;28;19972;-80
2023/01/27 07:17:58;;;;;;;;;;;1.60;94.90;;;;;;5006411;28;19933;-79
2023/01/27 07:20:27;;;;;;;;;;;1.60;94.90;;;;;;5007358;28;20020;-79
2023/01/27 07:22:53;;;;;;;;;;;1.50;94.90;;;;;;5007615;28;19945;-79
2023/01/27 07:25:20;;;;;;;;;;;1.50;94.90;;;;;;5008166;28;19952;-79
2023/01/27 07:27:46;;;;;;;;;;;1.60;95.00;;;;;;5009829;28;19928;-80
2023/01/27 07:30:14;;;;;;;;;;;1.50;95.00;;;;;;5005062;28;19963;-80
2023/01/27 07:32:41;;;;;;;;;;;1.60;95.00;;;;;;5009855;28;19932;-80
2023/01/27 07:35:07;;;;;;;;;;;1.50;94.90;;;;;;5002294;28;19937;-80
2023/01/27 07:37:34;;;;;;;;;;;1.60;95.00;;;;;;5008395;28;19934;-79
2023/01/27 07:40:01;;;;;;;;;;;1.50;94.90;;;;;;5005813;28;19933;-79
2023/01/27 07:42:27;;;;;;;;;;;1.50;94.90;;;;;;5015560;28;19952;-79
2023/01/27 07:44:54;;;;;;;;;;;1.50;94.90;;;;;;5005007;28;19971;-79
2023/01/27 07:47:23;;;;;;;;;;;1.60;94.90;;;;;;5007825;28;19929;-80
2023/01/27 07:49:49;;;;;;;;;;;1.50;94.90;;;;;;5003848;28;20027;-79
2023/01/27 07:52:16;;;;;;;;;;;1.60;94.90;;;;;;5008827;28;20642;-80
2023/01/27 07:54:42;;;;;;;;;;;1.60;94.90;;;;;;5006465;28;20507;-80
2023/01/27 07:57:09;;;;;;;;;;;1.60;94.90;;;;;;5006390;28;20014;-79
2023/01/27 07:59:35;;;;;;;;;;;1.50;94.90;;;;;;5009939;28;19929;-79
2023/01/27 08:02:02;;;;;;;;;;;1.50;94.90;;;;;;5003538;28;20435;-79
2023/01/27 08:04:30;;;;;;;;;;;1.50;94.90;;;;;;5001238;28;19929;-80
2023/01/27 08:06:56;;;;;;;;;;;1.60;94.90;;;;;;5013727;28;20354;-80
2023/01/27 08:09:23;;;;;;;;;;;1.50;94.90;;;;;;4999986;28;20417;-79
2023/01/27 08:11:49;;;;;;;;;;;1.60;94.90;;;;;;5011892;28;20693;-79
2023/01/27 08:14:16;;;;;;;;;;;1.50;94.90;;;;;;5010011;28;19980;-79
2023/01/27 08:16:43;;;;;;;;;;;1.50;94.90;;;;;;4997345;28;19933;-79
2023/01/27 08:19:09;;;;;;;;;;;1.50;94.80;;;;;;5006294;28;19964;-80
2023/01/27 08:21:37;;;;;;;;;;;1.60;94.90;;;;;;5004606;28;19933;-80
2023/01/27 08:24:04;;;;;;;;;;;1.60;94.80;;;;;;5004377;28;19941;-79
2023/01/27 08:26:30;;;;;;;;;;;1.60;94.80;;;;;;5008362;28;19933;-79
2023/01/27 08:28:57;;;;;;;;;;;1.60;94.70;;;;;;5008649;28;19937;-79
2023/01/27 08:31:23;;;;;;;;;;;1.60;94.70;;;;;;5004178;28;19934;-77
2023/01/27 08:33:52;;;;;;;;;;;1.50;94.60;;;;;;5004225;28;19957;-77
2023/01/27 08:36:18;;;;;;;;;;;1.50;94.60;;;;;;5013600;28;19929;-78
2023/01/27 08:38:48;;;;;;;;;;;1.60;94.70;;;;;;5005332;28;19941;-78
2023/01/27 08:41:15;;;;;;;;;;;1.50;94.60;;;;;;5002457;28;19980;-78
2023/01/27 08:43:42;;;;;;;;;;;1.50;94.60;;;;;;5002724;28;19930;-77
2023/01/27 08:46:09;;;;;;;;;;;1.60;94.60;;;;;;5011835;28;19983;-77
2023/01/27 08:48:35;;;;;;;;;;;1.60;94.60;;;;;;5006332;28;19998;-78
2023/01/27 08:51:03;;;;;;;;;;;1.60;94.60;;;;;;5003181;28;19934;-77
2023/01/27 08:53:29;;;;;;;;;;;1.50;94.60;;;;;;5009278;28;19933;-78
2023/01/27 08:55:58;;;;;;;;;;;1.60;94.60;;;;;;5004092;28;19929;-78
2023/01/27 08:58:25;;;;;;;;;;;1.60;94.60;;;;;;5005096;28;20027;-78
2023/01/27 09:00:51;;;;;;;;;;;1.60;94.60;;;;;;5003838;28;19929;-78
2023/01/27 09:03:18;;;;;;;;;;;1.60;94.50;;;;;;5005096;28;19956;-78
2023/01/27 09:05:44;;;;;;;;;;;1.60;94.50;;;;;;5007505;28;19937;-78
2023/01/27 09:08:11;;;;;;;;;;;1.60;94.40;;;;;;5006654;28;19976;-78
2023/01/27 09:10:38;;;;;;;;;;;1.60;94.40;;;;;;5001793;28;20403;-77
2023/01/27 09:13:07;;;;;;;;;;;1.60;94.40;;;;;;5003804;28;20429;-71
2023/01/27 09:15:34;;;;;;;;;;;1.60;94.30;;;;;;5014172;28;19975;-73
2023/01/27 09:18:00;;;;;;;;;;;1.70;94.30;;;;;;5006319;28;19937;-72
2023/01/27 09:20:27;;;;;;;;;;;1.70;94.30;;;;;;5008681;28;19935;-72
2023/01/27 09:22:54;;;;;;;;;;;1.70;94.30;;;;;;5005930;28;19929;-72
2023/01/27 09:25:21;;;;;;;;;;;1.70;94.20;;;;;;5000870;28;19984;-72
2023/01/27 09:27:47;;;;;;;;;;;1.70;94.10;;;;;;5007714;28;19983;-72
2023/01/27 09:30:15;;;;;;;;;;;1.70;94.00;;;;;;5006666;28;20015;-72
2023/01/27 09:32:42;;;;;;;;;;;1.70;94.00;;;;;;5007522;28;19979;-72
2023/01/27 09:35:09;;;;;;;;;;;1.70;94.00;;;;;;5006262;28;19999;-71
2023/01/27 09:37:39;;;;;;;;;;;1.70;93.90;;;;;;5006079;28;19937;-72
2023/01/27 09:40:09;;;;;;;;;;;1.70;93.90;;;;;;5003762;28;20012;-72
2023/01/27 09:42:49;;;;;;;;;;;1.70;93.90;;;;;;5007737;28;19940;-71
2023/01/27 09:45:23;;;;;;;;;;;1.70;93.90;;;;;;5007027;28;20288;-72
2023/01/27 09:47:57;;;;;;;;;;;1.70;93.80;;;;;;5007547;28;19929;-71
2023/01/27 09:50:28;;;;;;;;;;;1.70;93.80;;;;;;5007899;28;19925;-72
2023/01/27 09:53:11;;;;;;;;;;;1.80;93.80;;;;;;5005680;28;20036;-71
2023/01/27 09:55:40;;;;;;;;;;;1.80;93.80;;;;;;5001915;28;19932;-72
2023/01/27 09:58:11;;;;;;;;;;;1.80;93.70;;;;;;5008733;28;19925;-77
2023/01/27 10:00:43;;;;;;;;;;;1.80;93.70;;;;;;5010744;28;19933;-77
2023/01/27 10:03:19;;;;;;;;;;;1.80;93.70;;;;;;5008355;28;20626;-77
2023/01/27 10:06:03;;;;;;;;;;;1.80;93.60;;;;;;5008529;28;20896;-72
2023/01/27 10:08:40;;;;;;;;;;;1.80;93.60;;;;;;5003248;28;19929;-72
2023/01/27 10:11:12;;;;;;;;;;;1.80;93.60;;;;;;5002471;28;19936;-72
2023/01/27 10:13:43;;;;;;;;;;;1.80;93.50;;;;;;5017218;28;19929;-72
2023/01/27 10:16:19;;;;;;;;;;;1.80;93.50;;;;;;5006253;28;19933;-72
2023/01/27 10:18:54;;;;;;;;;;;1.80;93.50;;;;;;5008455;28;20372;-72
2023/01/27 10:21:24;;;;;;;;;;;1.80;93.50;;;;;;5012181;28;19933;-73
2023/01/27 10:23:56;;;;;;;;;;;1.80;93.50;;;;;;5003380;28;19952;-72
2023/01/27 10:26:28;;;;;;;;;;;1.80;93.50;;;;;;5002192;28;19937;-72
2023/01/27 10:28:57;;;;;;;;;;;1.80;93.40;;;;;;5010777;28;19936;-72
2023/01/27 10:31:26;;;;;;;;;;;1.80;93.40;;;;;;5007381;28;20000;-72
2023/01/27 10:33:54;;;;;;;;;;;1.80;93.40;;;;;;4999935;28;19930;-73
2023/01/27 10:36:28;;;;;;;;;;;1.80;93.40;;;;;;5009797;28;20623;-77
2023/01/27 10:39:00;;;;;;;;;;;1.80;93.30;;;;;;5007994;28;19929;-77
2023/01/27 10:41:31;;;;;;;;;;;1.80;93.30;;;;;;4995060;28;19933;-76
2023/01/27 10:44:03;;;;;;;;;;;1.80;93.30;;;;;;4998612;28;19930;-76
2023/01/27 10:46:36;;;;;;;;;;;1.80;93.30;;;;;;4993844;28;19930;-78
2023/01/27 10:49:06;;;;;;;;;;;1.90;93.30;;;;;;4993454;28;19933;-78
2023/01/27 10:51:35;;;;;;;;;;;1.90;93.30;;;;;;4998951;28;19941;-79
2023/01/27 10:54:05;;;;;;;;;;;1.90;93.30;;;;;;5008243;28;19972;-78
2023/01/27 10:56:35;;;;;;;;;;;1.90;93.30;;;;;;4993339;28;20023;-79
2023/01/27 10:59:03;;;;;;;;;;;1.90;93.20;;;;;;4995978;28;19929;-78
2023/01/27 11:01:32;;;;;;;;;;;1.90;93.10;;;;;;5007696;28;19995;-79
2023/01/27 11:04:03;;;;;;;;;;;1.90;93.10;;;;;;5005100;28;19951;-79
2023/01/27 11:06:32;;;;;;;;;;;1.90;93.10;;;;;;5006787;28;19929;-79
2023/01/27 11:09:04;;;;;;;;;;;1.90;93.10;;;;;;5000069;28;19934;-79
2023/01/27 11:11:45;;;;;;;;;;;1.90;93.10;;;;;;5003076;28;19936;-79
2023/01/27 11:14:16;;;;;;;;;;;1.90;93.10;;;;;;5006960;28;19930;-78
2023/01/27 11:16:46;;;;;;;;;;;1.90;93.00;;;;;;5004985;28;19937;-80
2023/01/27 11:19:18;;;;;;;;;;;1.90;93.00;;;;;;5006263;28;20582;-80
2023/01/27 11:21:44;;;;;;;;;;;1.90;93.00;;;;;;5007615;28;19937;-78
2023/01/27 11:24:15;;;;;;;;;;;1.90;93.00;;;;;;5002244;28;19976;-79
2023/01/27 11:26:44;;;;;;;;;;;1.90;93.00;;;;;;5001071;28;20052;-79
2023/01/27 11:29:19;;;;;;;;;;;1.90;93.00;;;;;;4999618;28;19936;-78
2023/01/27 11:31:51;;;;;;;;;;;2.00;93.00;;;;;;5001690;28;20994;-79
2023/01/27 11:34:22;;;;;;;;;;;2.00;93.00;;;;;;5003464;28;20443;-78
2023/01/27 11:36:49;;;;;;;;;;;2.00;93.10;;;;;;5000773;28;19929;-75
2023/01/27 11:39:17;;;;;;;;;;;2.00;93.10;;;;;;5004157;28;19929;-81
2023/01/27 11:41:45;;;;;;;;;;;2.00;93.00;;;;;;4999339;28;19929;-78
2023/01/27 11:44:17;;;;;;;;;;;2.00;93.00;;;;;;5009022;28;20335;-80
2023/01/27 11:46:44;;;;;;;;;;;2.00;93.00;;;;;;5005540;28;20478;-79
2023/01/27 11:49:12;;;;;;;;;;;2.00;93.30;;;;;;5015727;28;19929;-79
2023/01/27 11:51:40;;;;;;;;;;;2.00;92.90;;;;;;5005161;28;19940;-79
2023/01/27 11:54:09;;;;;;;;;;;2.00;93.00;;;;;;5004483;28;19979;-79
2023/01/27 11:56:37;;;;;;;;;;;2.00;93.00;;;;;;5002712;28;19926;-79
2023/01/27 11:59:06;;;;;;;;;;;2.00;93.00;;;;;;5006621;28;19968;-80
2023/01/27 12:01:38;;;;;;;;;;;2.00;93.00;;;;;;5003069;28;19947;-79
2023/01/27 12:04:06;;;;;;;;;;;2.00;93.10;;;;;;5003177;28;19940;-79
2023/01/27 12:06:35;;;;;;;;;;;2.00;93.00;;;;;;5000146;28;19926;-79
2023/01/27 12:09:03;;;;;;;;;;;2.00;93.00;;;;;;5003661;28;19926;-80
2023/01/27 12:11:31;;;;;;;;;;;2.10;93.00;;;;;;4996840;28;20261;-80
2023/01/27 12:13:58;;;;;;;;;;;2.00;93.00;;;;;;5004374;28;19937;-79
2023/01/27 12:16:26;;;;;;;;;;;2.10;93.00;;;;;;5002073;28;19972;-78
2023/01/27 12:18:55;;;;;;;;;;;2.10;92.90;;;;;;5001516;28;19929;-79
2023/01/27 12:21:33;;;;;;;;;;;2.10;93.00;;;;;;5002019;28;19930;-78
2023/01/27 12:23:59;;;;;;;;;;;2.10;93.00;;;;;;5004364;28;19929;-79
2023/01/27 12:26:31;;;;;;;;;;;2.10;93.00;;;;;;5003045;28;19938;-79
2023/01/27 12:28:59;;;;;;;;;;;2.10;93.00;;;;;;5003352;28;19991;-78
2023/01/27 12:31:27;;;;;;;;;;;2.10;93.00;;;;;;5001617;28;19929;-79
2023/01/27 12:33:58;;;;;;;;;;;2.10;93.00;;;;;;5002168;28;19930;-77
2023/01/27 12:36:24;;;;;;;;;;;2.10;92.90;;;;;;5005910;28;19929;-79
2023/01/27 12:38:52;;;;;;;;;;;2.10;92.90;;;;;;5004237;28;19934;-81
2023/01/27 12:41:23;;;;;;;;;;;2.10;93.00;;;;;;5000933;28;19937;-79
2023/01/27 12:43:53;;;;;;;;;;;2.10;92.90;;;;;;5005786;28;19972;-80
2023/01/27 12:46:21;;;;;;;;;;;2.10;92.90;;;;;;5007317;28;20322;-79
2023/01/27 12:48:49;;;;;;;;;;;2.10;93.00;;;;;;5003883;28;19932;-80
2023/01/27 12:51:17;;;;;;;;;;;2.10;92.90;;;;;;5006619;28;20035;-80
2023/01/27 12:53:43;;;;;;;;;;;2.10;92.90;;;;;;5005765;28;19941;-79
2023/01/27 12:56:11;;;;;;;;;;;2.20;93.00;;;;;;5002272;28;20099;-80
2023/01/27 12:58:39;;;;;;;;;;;2.20;93.00;;;;;;5005427;28;19941;-81
2023/01/27 13:01:07;;;;;;;;;;;2.20;93.00;;;;;;5007139;28;19929;-79
2023/01/27 13:03:43;;;;;;;;;;;2.20;92.90;;;;;;5003112;28;20590;-80
2023/01/27 13:06:14;;;;;;;;;;;2.20;93.00;;;;;;5008014;28;19933;-78
2023/01/27 13:08:41;;;;;;;;;;;2.20;93.00;;;;;;5003289;28;19937;-79
2023/01/27 13:11:08;;;;;;;;;;;2.20;93.00;;;;;;5006700;28;19929;-80
2023/01/27 13:13:34;;;;;;;;;;;2.20;93.00;;;;;;5007436;28;19932;-78
2023/01/27 13:16:04;;;;;;;;;;;2.20;93.00;;;;;;5010536;28;19925;-80
2023/01/27 13:18:34;;;;;;;;;;;2.20;93.00;;;;;;5007757;28;19956;-78
2023/01/27 13:21:03;;;;;;;;;;;2.20;93.00;;;;;;5003889;28;19937;-78
2023/01/27 13:23:31;;;;;;;;;;;2.20;93.00;;;;;;5010726;28;20438;-80
2023/01/27 13:26:01;;;;;;;;;;;2.20;93.00;;;;;;5008578;28;20286;-78
2023/01/27 13:28:31;;;;;;;;;;;2.20;93.00;;;;;;5010844;28;20411;-78
2023/01/27 13:31:02;;;;;;;;;;;2.20;93.00;;;;;;5008385;28;19929;-80
2023/01/27 13:33:31;;;;;;;;;;;2.20;93.10;;;;;;5006842;28;20016;-77
2023/01/27 13:36:02;;;;;;;;;;;2.20;93.00;;;;;;4994763;28;19933;-76
2023/01/27 13:38:32;;;;;;;;;;;2.30;93.00;;;;;;4999280;28;19944;-78
2023/01/27 13:41:00;;;;;;;;;;;2.20;93.00;;;;;;5004146;28;19933;-78
2023/01/27 13:43:32;;;;;;;;;;;2.20;93.10;;;;;;5005268;28;19967;-76
2023/01/27 13:46:02;;;;;;;;;;;2.30;93.10;;;;;;5004098;28;19991;-78
2023/01/27 13:48:31;;;;;;;;;;;2.30;93.10;;;;;;4993236;28;19940;-77
2023/01/27 13:51:03;;;;;;;;;;;2.30;93.10;;;;;;4996825;28;19953;-79
2023/01/27 13:53:29;;;;;;;;;;;2.30;93.00;;;;;;5001580;28;20293;-78
2023/01/27 13:56:04;;;;;;;;;;;2.30;93.10;;;;;;4987602;28;19929;-78
2023/01/27 13:58:38;;;;;;;;;;;2.30;93.10;;;;;;4999643;28;20533;-79
2023/01/27 14:01:10;;;;;;;;;;;2.30;93.10;;;;;;5001399;28;19933;-78
2023/01/27 14:03:55;;;;;;;;;;;2.30;93.10;;;;;;4996989;28;19933;-78
2023/01/27 14:06:32;;;;;;;;;;;2.30;93.10;;;;;;4999548;28;19933;-78
2023/01/27 14:09:05;;;;;;;;;;;2.30;93.10;;;;;;5000272;28;19930;-77
2023/01/27 14:11:34;;;;;;;;;;;2.30;93.10;;;;;;4998851;28;19945;-78
2023/01/27 14:14:07;;;;;;;;;;;2.30;93.10;;;;;;4998075;28;19937;-77
2023/01/27 14:16:39;;;;;;;;;;;2.30;93.10;;;;;;5006086;28;19929;-77
2023/01/27 14:19:15;;;;;;;;;;;2.30;93.10;;;;;;5002131;28;19929;-78
2023/01/27 14:21:46;;;;;;;;;;;2.30;93.10;;;;;;5002625;28;20411;-77
2023/01/27 14:24:22;;;;;;;;;;;2.30;93.10;;;;;;5000729;28;19933;-77
2023/01/27 14:26:52;;;;;;;;;;;2.30;93.10;;;;;;5011398;28;20044;-77
2023/01/27 14:29:25;;;;;;;;;;;2.40;93.20;;;;;;5005635;28;19929;-77
2023/01/27 14:31:56;;;;;;;;;;;2.30;93.00;;;;;;5008185;28;20486;-77
2023/01/27 14:34:31;;;;;;;;;;;2.30;93.00;;;;;;5006516;28;19929;-77
2023/01/27 14:37:07;;;;;;;;;;;2.40;93.00;;;;;;5003926;28;20419;-77
2023/01/27 14:39:37;;;;;;;;;;;2.40;93.00;;;;;;5003905;28;20426;-77
2023/01/27 14:42:07;;;;;;;;;;;2.40;93.10;;;;;;5004356;28;19933;-78
2023/01/27 14:44:36;;;;;;;;;;;2.40;93.10;;;;;;5008471;28;20661;-77
2023/01/27 14:47:08;;;;;;;;;;;2.40;93.20;;;;;;5001109;28;19933;-77
2023/01/27 14:49:43;;;;;;;;;;;2.40;93.10;;;;;;5005126;28;19984;-77
2023/01/27 14:52:16;;;;;;;;;;;2.40;93.10;;;;;;5012412;28;20423;-77
2023/01/27 14:54:53;;;;;;;;;;;2.40;93.00;;;;;;4998066;28;19984;-73
2023/01/27 14:57:27;;;;;;;;;;;2.40;93.10;;;;;;5012642;28;20433;-72
2023/01/27 14:59:59;;;;;;;;;;;2.40;93.00;;;;;;5004801;28;19929;-72
2023/01/27 15:02:36;;;;;;;;;;;2.40;93.20;;;;;;5014374;28;19933;-72
2023/01/27 15:05:05;;;;;;;;;;;2.40;93.20;;;;;;5000565;28;19934;-73
2023/01/27 15:07:36;;;;;;;;;;;2.40;93.20;;;;;;5002816;28;19984;-74
2023/01/27 15:10:08;;;;;;;;;;;2.40;93.20;;;;;;5007222;28;19936;-72